Time;durP1;ratioP1;P1;durP2;ratioP2;P2;SDS_P1;SDS_P2;PMS_P1;PMS_P2;Temp;Humidity;BMP_temperature;BMP_pressure;BME280_temperature;BME280_humidity;BME280_pressure;Samples;Min_cycle;Max_cycle;Signal;HPM_P1;HPM_P2
2023/07/06 00:00:54;;;;;;;9.05;4.68;;;;;;;14.64;100.00;96457.47;5070298;28;20071;-75
2023/07/06 00:03:23;;;;;;;10.48;5.03;;;;;;;14.63;100.00;96455.06;5069506;28;20048;-75
2023/07/06 00:05:50;;;;;;;10.27;4.63;;;;;;;14.63;100.00;96461.34;5070311;28;20514;-76
2023/07/06 00:08:17;;;;;;;7.10;4.53;;;;;;;14.61;100.00;96466.34;5069898;28;20044;-75
2023/07/06 00:10:46;;;;;;;6.30;4.43;;;;;;;14.58;100.00;96462.38;5070394;28;20629;-76
2023/07/06 00:13:13;;;;;;;7.65;4.25;;;;;;;14.54;100.00;96460.66;5069815;28;20041;-76
2023/07/06 00:15:42;;;;;;;11.02;4.60;;;;;;;14.42;100.00;96460.63;5070575;28;20041;-75
2023/07/06 00:18:09;;;;;;;12.70;4.80;;;;;;;14.38;100.00;96454.22;5070481;28;20044;-75
2023/07/06 00:20:37;;;;;;;8.68;4.45;;;;;;;14.41;100.00;96459.00;5070241;28;20498;-75
2023/07/06 00:23:04;;;;;;;7.80;4.65;;;;;;;14.43;100.00;96467.69;5070107;28;20044;-76
2023/07/06 00:25:31;;;;;;;8.38;4.55;;;;;;;14.41;100.00;96461.72;5070630;28;20131;-75
2023/07/06 00:28:02;;;;;;;7.78;4.30;;;;;;;14.39;100.00;96455.81;5069837;28;20052;-76
2023/07/06 00:30:41;;;;;;;6.63;4.30;;;;;;;14.35;100.00;96464.72;5090227;28;20438;-75
2023/07/06 00:33:07;;;;;;;10.43;4.20;;;;;;;14.32;100.00;96479.06;5089842;28;20039;-75
2023/07/06 00:35:34;;;;;;;7.25;4.63;;;;;;;14.25;100.00;96494.44;5090423;28;20494;-75
2023/07/06 00:38:02;;;;;;;6.00;3.53;;;;;;;14.10;100.00;96493.97;5090332;28;20044;-75
2023/07/06 00:40:31;;;;;;;10.05;4.57;;;;;;;14.09;100.00;96488.81;5090010;28;20048;-75
2023/07/06 00:42:57;;;;;;;5.70;3.95;;;;;;;14.15;100.00;96478.44;5073872;28;20522;-75
2023/07/06 00:45:26;;;;;;;13.05;4.32;;;;;;;14.18;100.00;96484.06;5078821;28;20052;-75
2023/07/06 00:47:56;;;;;;;6.75;4.10;;;;;;;14.18;100.00;96478.56;5069703;28;20053;-75
2023/07/06 00:50:28;;;;;;;6.38;3.90;;;;;;;14.21;100.00;96488.88;5069414;28;20060;-75
2023/07/06 00:52:58;;;;;;;6.05;4.05;;;;;;;14.20;100.00;96476.31;5052928;28;20532;-75
2023/07/06 00:55:30;;;;;;;8.02;4.07;;;;;;;14.24;100.00;96468.19;5049462;28;20044;-75
2023/07/06 00:58:01;;;;;;;8.10;3.92;;;;;;;14.21;100.00;96461.47;5049912;28;20052;-75
2023/07/06 01:00:29;;;;;;;11.23;4.15;;;;;;;14.20;100.00;96462.63;5089697;28;20054;-75
2023/07/06 01:03:00;;;;;;;7.47;3.83;;;;;;;14.27;100.00;96457.38;5070671;28;20040;-76
2023/07/06 01:05:28;;;;;;;10.32;4.63;;;;;;;14.26;100.00;96455.78;5049166;28;20749;-74
2023/07/06 01:07:59;;;;;;;8.00;4.68;;;;;;;14.24;100.00;96460.00;5049171;28;20094;-74
2023/07/06 01:10:26;;;;;;;10.88;4.78;;;;;;;14.27;100.00;96453.84;5048086;28;20464;-74
2023/07/06 01:12:52;;;;;;;7.63;4.20;;;;;;;14.26;100.00;96453.03;5049279;28;20381;-75
2023/07/06 01:15:19;;;;;;;10.35;4.55;;;;;;;14.28;100.00;96450.75;5065030;28;20046;-75
2023/07/06 01:17:54;;;;;;;6.50;4.15;;;;;;;14.25;100.00;96447.88;5051358;28;20103;-75
2023/07/06 01:20:30;;;;;;;6.05;3.97;;;;;;;14.23;100.00;96442.75;5048462;28;20044;-75
2023/07/06 01:23:29;;;;;;;10.20;4.45;;;;;;;14.19;100.00;96450.03;5049174;28;20052;-75
2023/07/06 01:26:19;;;;;;;10.57;4.60;;;;;;;13.78;100.00;96451.75;5015251;28;20045;-75
2023/07/06 01:29:04;;;;;;;5.97;4.00;;;;;;;13.84;100.00;96453.16;5043074;28;20044;-75
2023/07/06 01:31:45;;;;;;;6.28;4.45;;;;;;;13.87;100.00;96451.66;5048736;28;20511;-75
2023/07/06 01:34:20;;;;;;;8.45;4.65;;;;;;;13.66;100.00;96448.94;5048464;28;20703;-75
2023/07/06 01:36:52;;;;;;;6.93;4.78;;;;;;;13.68;100.00;96454.13;5049075;28;20136;-74
2023/07/06 01:39:20;;;;;;;5.05;3.95;;;;;;;13.79;100.00;96455.28;5048679;28;20497;-74
2023/07/06 01:41:48;;;;;;;10.02;4.85;;;;;;;13.79;100.00;96447.88;5049237;28;20069;-74
2023/07/06 01:44:17;;;;;;;11.30;5.10;;;;;;;13.73;100.00;96451.97;5055915;28;20037;-74
2023/07/06 01:46:51;;;;;;;10.82;5.10;;;;;;;13.76;100.00;96459.50;5060783;28;20498;-74
2023/07/06 01:49:18;;;;;;;9.48;4.65;;;;;;;13.71;100.00;96454.22;5048759;28;20110;-74
2023/07/06 01:51:57;;;;;;;7.38;4.85;;;;;;;13.66;100.00;96451.69;5034350;28;20122;-75
2023/07/06 01:54:33;;;;;;;10.77;5.15;;;;;;;13.66;100.00;96451.69;5052480;28;20053;-75
2023/07/06 01:57:05;;;;;;;10.10;5.03;;;;;;;13.72;100.00;96452.28;5052963;28;20055;-74
2023/07/06 01:59:35;;;;;;;7.82;4.60;;;;;;;13.78;100.00;96457.25;5052804;28;20411;-74
2023/07/06 02:02:07;;;;;;;11.27;5.53;;;;;;;13.66;100.00;96456.38;5051995;28;20049;-74
2023/07/06 02:04:35;;;;;;;7.15;4.78;;;;;;;13.58;100.00;96455.31;5052563;28;20059;-75
2023/07/06 02:07:04;;;;;;;9.10;4.55;;;;;;;13.66;100.00;96457.16;5052037;28;20518;-75
2023/07/06 02:09:31;;;;;;;8.35;4.97;;;;;;;13.65;100.00;96450.09;5052383;28;20052;-74
2023/07/06 02:11:57;;;;;;;7.38;4.28;;;;;;;13.54;100.00;96448.91;5052341;28;20052;-75
2023/07/06 02:14:24;;;;;;;6.75;4.80;;;;;;;13.63;100.00;96451.59;5060539;28;20060;-74
2023/07/06 02:16:52;;;;;;;8.18;4.40;;;;;;;13.65;100.00;96436.41;5066230;28;20067;-74
2023/07/06 02:19:21;;;;;;;7.43;4.95;;;;;;;13.63;100.00;96440.63;5051943;28;20052;-74
2023/07/06 02:21:50;;;;;;;10.60;4.95;;;;;;;13.61;100.00;96442.88;5052089;28;20102;-75
2023/07/06 02:24:17;;;;;;;9.77;4.60;;;;;;;13.50;100.00;96445.22;5051855;28;20041;-74
2023/07/06 02:26:44;;;;;;;8.93;4.00;;;;;;;13.54;100.00;96443.44;5052478;28;20033;-74
2023/07/06 02:29:10;;;;;;;6.88;4.00;;;;;;;13.57;100.00;96449.03;5052343;28;20045;-75
2023/07/06 02:31:37;;;;;;;8.80;4.18;;;;;;;13.58;100.00;96444.38;5052146;28;20049;-74
2023/07/06 02:34:03;;;;;;;8.55;4.18;;;;;;;13.65;100.00;96449.28;5051790;28;20504;-75
2023/07/06 02:36:32;;;;;;;8.70;4.53;;;;;;;13.67;100.00;96445.06;5052254;28;20053;-74
2023/07/06 02:38:58;;;;;;;8.60;4.35;;;;;;;13.61;100.00;96443.69;5052054;28;20045;-74
2023/07/06 02:41:25;;;;;;;7.93;4.28;;;;;;;13.59;100.00;96448.69;5062013;28;20056;-74
2023/07/06 02:43:52;;;;;;;6.50;4.10;;;;;;;13.59;100.00;96440.50;5055709;28;20056;-75
2023/07/06 02:46:19;;;;;;;8.57;4.80;;;;;;;13.60;100.00;96442.09;5071285;28;20049;-74
2023/07/06 02:48:46;;;;;;;7.40;4.05;;;;;;;13.61;100.00;96438.22;5053923;28;20463;-74
2023/07/06 02:51:12;;;;;;;10.10;3.97;;;;;;;13.56;100.00;96443.88;5051271;28;20045;-75
2023/07/06 02:53:40;;;;;;;7.15;4.35;;;;;;;13.54;100.00;96438.75;5051772;28;20045;-75
2023/07/06 02:56:07;;;;;;;6.90;4.45;;;;;;;13.51;100.00;96444.09;5051509;28;20449;-75
2023/07/06 02:58:34;;;;;;;7.38;4.43;;;;;;;13.53;100.00;96445.38;5051919;28;20049;-74
2023/07/06 03:01:00;;;;;;;9.52;4.28;;;;;;;13.29;100.00;96440.56;5051386;28;20064;-75
2023/07/06 03:03:27;;;;;;;7.13;4.30;;;;;;;13.22;100.00;96443.03;5091660;28;20040;-74
2023/07/06 03:05:54;;;;;;;9.55;4.07;;;;;;;13.17;100.00;96448.66;5090619;28;20052;-74
2023/07/06 03:08:20;;;;;;;7.60;3.97;;;;;;;13.21;100.00;96441.44;5091418;28;20048;-74
2023/07/06 03:10:48;;;;;;;7.18;4.45;;;;;;;13.26;100.00;96446.72;5090765;28;20043;-76
2023/07/06 03:13:15;;;;;;;6.63;4.20;;;;;;;13.30;100.00;96438.63;5068163;28;20392;-75
2023/07/06 03:15:42;;;;;;;8.10;4.18;;;;;;;13.14;100.00;96441.13;5089426;28;20044;-74
2023/07/06 03:18:09;;;;;;;9.63;4.88;;;;;;;12.91;100.00;96450.78;5053243;28;20048;-74
2023/07/06 03:20:36;;;;;;;8.73;4.50;;;;;;;12.92;100.00;96446.91;5051520;28;20107;-75
2023/07/06 03:23:03;;;;;;;8.23;5.07;;;;;;;12.99;100.00;96444.44;5051018;28;20052;-75
2023/07/06 03:25:30;;;;;;;7.68;4.03;;;;;;;13.03;100.00;96446.19;5051295;28;20055;-74
2023/07/06 03:27:58;;;;;;;7.00;4.10;;;;;;;13.06;100.00;96448.25;5051137;28;20048;-74
2023/07/06 03:30:28;;;;;;;9.80;3.90;;;;;;;13.07;100.00;96441.66;5058492;28;20048;-74
2023/07/06 03:32:55;;;;;;;6.70;4.20;;;;;;;13.13;100.00;96449.66;5057638;28;20040;-74
2023/07/06 03:35:23;;;;;;;7.55;4.68;;;;;;;13.08;100.00;96445.19;5070838;28;20052;-74
2023/07/06 03:37:50;;;;;;;6.95;4.53;;;;;;;12.92;100.00;96457.81;5056512;28;20048;-75
2023/07/06 03:40:17;;;;;;;7.72;4.50;;;;;;;12.91;100.00;96464.44;5050991;28;20072;-75
2023/07/06 03:42:46;;;;;;;6.93;4.00;;;;;;;12.95;100.00;96457.19;5056228;28;20132;-74
2023/07/06 03:45:15;;;;;;;7.85;4.20;;;;;;;13.04;100.00;96452.44;5055671;28;20526;-75
2023/07/06 03:47:43;;;;;;;6.35;3.92;;;;;;;13.09;100.00;96449.50;5062719;28;20059;-74
2023/07/06 03:50:12;;;;;;;6.88;4.57;;;;;;;13.17;100.00;96448.66;5075670;28;20048;-74
2023/07/06 03:52:39;;;;;;;7.85;4.35;;;;;;;13.23;100.00;96449.31;5061833;28;20053;-75
2023/07/06 03:55:08;;;;;;;6.78;4.10;;;;;;;13.29;100.00;96447.97;5063965;28;20423;-75
2023/07/06 03:57:34;;;;;;;6.78;3.95;;;;;;;13.25;100.00;96447.81;5074632;28;20044;-75
2023/07/06 04:00:01;;;;;;;7.22;4.13;;;;;;;13.27;100.00;96444.78;5074530;28;20397;-74
2023/07/06 04:02:30;;;;;;;7.65;4.43;;;;;;;13.27;100.00;96445.56;5055503;28;20127;-74
2023/07/06 04:04:56;;;;;;;7.47;4.03;;;;;;;13.30;100.00;96442.16;5060439;28;20079;-75
2023/07/06 04:07:23;;;;;;;9.02;4.72;;;;;;;13.36;100.00;96448.22;5057599;28;20045;-74
2023/07/06 04:09:49;;;;;;;6.80;4.55;;;;;;;13.41;100.00;96445.28;5059603;28;20052;-75
2023/07/06 04:12:15;;;;;;;10.73;5.65;;;;;;;13.40;100.00;96451.09;5057094;28;20049;-74
2023/07/06 04:14:43;;;;;;;29.00;5.25;;;;;;;13.37;100.00;96449.06;5059634;28;20040;-75
2023/07/06 04:17:10;;;;;;;43.28;6.40;;;;;;;13.36;100.00;96444.69;5053391;28;20041;-74
2023/07/06 04:19:38;;;;;;;8.52;4.75;;;;;;;13.37;100.00;96454.53;5050676;28;20496;-74
2023/07/06 04:22:05;;;;;;;8.85;5.63;;;;;;;13.29;100.00;96458.91;5050238;28;20052;-74
2023/07/06 04:24:31;;;;;;;7.13;4.70;;;;;;;13.37;100.00;96454.53;5050737;28;20083;-75
2023/07/06 04:26:59;;;;;;;8.52;4.97;;;;;;;13.38;100.00;96456.13;5050210;28;20056;-74
2023/07/06 04:29:26;;;;;;;6.00;4.15;;;;;;;13.40;100.00;96453.84;5049395;28;20159;-74
2023/07/06 04:31:56;;;;;;;7.35;4.50;;;;;;;13.35;100.00;96456.78;5049864;28;20049;-74
2023/07/06 04:34:22;;;;;;;6.68;4.28;;;;;;;13.41;100.00;96469.13;5049902;28;20203;-74
2023/07/06 04:36:50;;;;;;;9.82;4.30;;;;;;;13.47;100.00;96462.34;5050016;28;20045;-74
2023/07/06 04:39:17;;;;;;;6.63;4.47;;;;;;;13.52;100.00;96464.84;5049673;28;20064;-74
2023/07/06 04:41:44;;;;;;;8.43;4.68;;;;;;;13.54;100.00;96457.13;5049855;28;20149;-74
2023/07/06 04:44:10;;;;;;;5.97;4.00;;;;;;;13.56;100.00;96457.56;5054815;28;20059;-74
2023/07/06 04:46:38;;;;;;;6.00;4.30;;;;;;;13.58;100.00;96458.06;5049911;28;20045;-74
2023/07/06 04:49:05;;;;;;;7.28;4.43;;;;;;;13.61;100.00;96456.56;5049427;28;20069;-74
2023/07/06 04:51:35;;;;;;;7.30;4.75;;;;;;;13.64;100.00;96464.91;5049755;28;20049;-74
2023/07/06 04:54:03;;;;;;;7.60;4.38;;;;;;;13.68;100.00;96459.59;5049561;28;20106;-76
2023/07/06 04:56:30;;;;;;;6.93;3.60;;;;;;;13.73;100.00;96462.91;5049821;28;20056;-74
2023/07/06 04:58:56;;;;;;;5.97;4.30;;;;;;;13.60;100.00;96461.25;5049830;28;20069;-74
2023/07/06 05:01:24;;;;;;;7.60;4.22;;;;;;;13.46;100.00;96460.72;5049269;28;20045;-74
2023/07/06 05:03:52;;;;;;;6.50;3.60;;;;;;;13.53;100.00;96461.00;5049871;28;20048;-75
2023/07/06 05:06:19;;;;;;;6.88;4.03;;;;;;;13.55;100.00;96461.44;5049288;28;20049;-74
2023/07/06 05:08:47;;;;;;;10.35;4.70;;;;;;;13.57;100.00;96462.72;5049640;28;20136;-74
2023/07/06 05:11:15;;;;;;;10.07;4.40;;;;;;;13.55;99.97;96477.84;5048801;28;20079;-74
2023/07/06 05:13:42;;;;;;;7.72;4.15;;;;;;;13.45;98.04;96472.78;5051849;28;20053;-74
2023/07/06 05:16:08;;;;;;;11.10;4.38;;;;;;;13.37;98.14;96471.72;5060428;28;20555;-74
2023/07/06 05:18:35;;;;;;;6.63;3.92;;;;;;;13.39;97.60;96477.66;5049733;28;20059;-75
2023/07/06 05:21:01;;;;;;;9.57;4.07;;;;;;;13.57;97.62;96478.31;5049108;28;20056;-74
2023/07/06 05:23:28;;;;;;;5.45;3.72;;;;;;;13.71;97.18;96480.78;5049264;28;20056;-75
2023/07/06 05:25:55;;;;;;;6.03;4.03;;;;;;;13.79;98.04;96472.50;5049219;28;20045;-75
2023/07/06 05:28:23;;;;;;;7.57;4.38;;;;;;;13.90;99.16;96478.38;5051546;28;20485;-74
2023/07/06 05:30:51;;;;;;;7.68;4.00;;;;;;;13.78;99.11;96479.13;5053489;28;20041;-74
2023/07/06 05:33:18;;;;;;;6.13;3.90;;;;;;;13.72;95.61;96483.19;5052670;28;20125;-74
2023/07/06 05:35:45;;;;;;;7.05;3.90;;;;;;;13.89;96.17;96482.25;5053098;28;20285;-74
2023/07/06 05:38:12;;;;;;;6.07;3.72;;;;;;;13.87;95.64;96483.72;5053153;28;20051;-75
2023/07/06 05:40:40;;;;;;;6.63;3.65;;;;;;;13.99;95.55;96484.56;5053961;28;20051;-75
2023/07/06 05:43:07;;;;;;;7.75;3.90;;;;;;;14.12;96.97;96485.41;5052365;28;20581;-75
2023/07/06 05:45:35;;;;;;;8.73;4.00;;;;;;;14.18;98.37;96483.25;5063706;28;20049;-75
2023/07/06 05:48:01;;;;;;;5.90;3.65;;;;;;;14.23;99.38;96483.84;5053110;28;20052;-75
2023/07/06 05:50:28;;;;;;;8.20;4.47;;;;;;;14.23;99.94;96483.84;5052698;28;20052;-75
2023/07/06 05:52:54;;;;;;;5.75;3.80;;;;;;;14.33;99.48;96475.19;5052675;28;20048;-75
2023/07/06 05:55:21;;;;;;;7.10;4.45;;;;;;;14.40;99.19;96473.84;5052517;28;20409;-75
2023/07/06 05:57:48;;;;;;;7.13;4.10;;;;;;;14.48;99.53;96470.25;5053094;28;20132;-75
2023/07/06 06:00:15;;;;;;;43.00;6.03;;;;;;;14.53;100.00;96472.75;5052426;28;20045;-74
2023/07/06 06:02:44;;;;;;;9.10;4.30;;;;;;;14.32;95.76;96494.72;5052578;28;20049;-74
2023/07/06 06:05:13;;;;;;;7.22;3.55;;;;;;;14.53;94.14;96481.78;5052422;28;21958;-75
2023/07/06 06:07:40;;;;;;;8.70;4.10;;;;;;;14.56;93.91;96483.03;5052570;28;20110;-74
2023/07/06 06:10:08;;;;;;;6.35;3.83;;;;;;;14.74;94.33;96487.16;5051903;28;20508;-75
2023/07/06 06:12:35;;;;;;;6.30;3.97;;;;;;;14.85;95.99;96496.53;5052013;28;20041;-74
2023/07/06 06:15:02;;;;;;;6.78;4.40;;;;;;;14.96;98.12;96490.59;5061898;28;20119;-74
2023/07/06 06:17:29;;;;;;;8.35;4.00;;;;;;;14.79;91.67;96491.63;5052166;28;20521;-75
2023/07/06 06:19:58;;;;;;;6.13;3.88;;;;;;;14.98;92.64;96493.78;5052214;28;20048;-75
2023/07/06 06:22:24;;;;;;;6.68;4.00;;;;;;;15.07;93.67;96491.75;5052182;28;20061;-75
2023/07/06 06:24:51;;;;;;;5.68;3.58;;;;;;;15.10;92.81;96497.34;5052673;28;20115;-74
2023/07/06 06:27:19;;;;;;;6.97;3.97;;;;;;;15.17;94.14;96495.97;5051925;28;20408;-75
2023/07/06 06:29:46;;;;;;;8.73;3.70;;;;;;;15.33;93.97;96488.63;5052367;28;20080;-76
2023/07/06 06:32:14;;;;;;;7.07;3.90;;;;;;;15.24;90.67;96496.97;5051304;28;20515;-75
2023/07/06 06:34:41;;;;;;;5.88;3.47;;;;;;;15.39;88.96;96499.00;5052548;28;20048;-75
2023/07/06 06:37:10;;;;;;;8.02;3.60;;;;;;;15.55;90.91;96501.06;5051429;28;20053;-75
2023/07/06 06:39:37;;;;;;;9.20;4.25;;;;;;;15.53;91.13;96497.88;5051824;28;20642;-75
2023/07/06 06:42:04;;;;;;;5.20;3.55;;;;;;;15.53;86.47;96497.88;5051657;28;20053;-75
2023/07/06 06:44:31;;;;;;;5.72;3.25;;;;;;;15.74;89.37;96493.03;5054146;28;20041;-76
2023/07/06 06:47:01;;;;;;;6.28;3.85;;;;;;;15.72;91.03;96491.78;5052021;28;20041;-76
2023/07/06 06:49:28;;;;;;;5.95;3.40;;;;;;;15.84;87.79;96500.00;5051957;28;20049;-75
2023/07/06 06:51:55;;;;;;;5.70;3.38;;;;;;;16.01;88.87;96504.38;5051667;28;20049;-75
2023/07/06 06:54:22;;;;;;;7.15;3.65;;;;;;;15.93;82.33;96497.91;5051575;28;20087;-75
2023/07/06 06:56:50;;;;;;;5.15;3.22;;;;;;;16.09;83.45;96497.94;5051760;28;20056;-75
2023/07/06 06:59:16;;;;;;;4.85;3.10;;;;;;;16.21;86.70;96500.63;5051337;28;20048;-76
2023/07/06 07:01:43;;;;;;;4.90;3.17;;;;;;;16.13;83.01;96502.41;5051738;28;20052;-76
2023/07/06 07:04:10;;;;;;;6.18;3.35;;;;;;;16.23;84.78;96503.81;5051262;28;20080;-76
2023/07/06 07:06:38;;;;;;;5.35;3.10;;;;;;;16.31;86.60;96500.13;5051712;28;20048;-76
2023/07/06 07:09:06;;;;;;;8.05;3.13;;;;;;;16.24;88.77;96501.91;5051263;28;20500;-76
2023/07/06 07:11:34;;;;;;;6.00;3.63;;;;;;;16.28;86.62;96506.31;5051087;28;20403;-76
2023/07/06 07:14:00;;;;;;;6.53;3.45;;;;;;;16.53;88.13;96500.69;5056339;28;20044;-75
2023/07/06 07:16:27;;;;;;;5.82;3.08;;;;;;;16.61;88.84;96502.50;5051785;28;20049;-76
2023/07/06 07:18:54;;;;;;;5.20;3.28;;;;;;;16.71;87.98;96502.00;5051651;28;20045;-76
2023/07/06 07:21:20;;;;;;;6.25;3.40;;;;;;;16.72;87.47;96511.03;5050721;28;20057;-76
2023/07/06 07:23:49;;;;;;;4.90;2.90;;;;;;;16.68;89.05;96500.72;5051478;28;20071;-76
2023/07/06 07:26:18;;;;;;;8.65;2.97;;;;;;;16.61;77.72;96505.25;5051000;28;20463;-76
2023/07/06 07:28:48;;;;;;;5.18;3.20;;;;;;;16.80;81.42;96499.84;5051478;28;20052;-77
2023/07/06 07:31:17;;;;;;;4.25;2.72;;;;;;;16.94;85.65;96505.72;5050522;28;20045;-75
2023/07/06 07:33:45;;;;;;;5.32;2.80;;;;;;;16.81;73.73;96506.97;5050906;28;20049;-76
2023/07/06 07:36:12;;;;;;;5.60;3.08;;;;;;;16.93;74.28;96504.13;5050536;28;20041;-76
2023/07/06 07:38:40;;;;;;;5.40;3.03;;;;;;;17.03;80.32;96496.50;5051406;28;20106;-76
2023/07/06 07:41:08;;;;;;;6.13;2.80;;;;;;;16.85;68.76;96510.59;5050342;28;20049;-76
2023/07/06 07:43:36;;;;;;;4.40;2.85;;;;;;;17.05;71.68;96505.19;5052820;28;20044;-76
2023/07/06 07:46:06;;;;;;;5.05;2.60;;;;;;;17.19;72.19;96503.56;5050917;28;20052;-77
2023/07/06 07:48:37;;;;;;;5.72;2.55;;;;;;;17.23;69.81;96509.19;5050951;28;20051;-76
2023/07/06 07:51:05;;;;;;;5.05;2.60;;;;;;;17.44;73.37;96500.63;5049620;28;20051;-76
2023/07/06 07:53:34;;;;;;;8.07;2.30;;;;;;;17.42;64.92;96502.91;5050406;28;20049;-76
2023/07/06 07:56:00;;;;;;;4.40;2.30;;;;;;;17.57;65.38;96495.78;5050808;28;20520;-76
2023/07/06 07:58:27;;;;;;;5.20;2.28;;;;;;;17.66;72.73;96493.63;5090914;28;20044;-76
2023/07/06 08:00:55;;;;;;;3.67;2.20;;;;;;;17.66;71.19;96496.38;5090635;28;20051;-76
2023/07/06 08:03:24;;;;;;;11.65;2.65;;;;;;;17.70;68.39;96503.56;5085828;28;20099;-76
2023/07/06 08:05:52;;;;;;;8.48;2.50;;;;;;;17.85;70.02;96503.88;5070649;28;20423;-76
2023/07/06 08:08:19;;;;;;;5.65;2.33;;;;;;;18.03;69.65;96504.25;5059054;28;20496;-76
2023/07/06 08:10:46;;;;;;;4.25;2.35;;;;;;;18.01;60.67;96501.88;5050509;28;20551;-76
2023/07/06 08:13:12;;;;;;;5.78;2.38;;;;;;;18.08;62.94;96506.72;5068370;28;20058;-76
2023/07/06 08:15:40;;;;;;;8.27;2.38;;;;;;;18.25;67.42;96509.03;5056800;28;20500;-76
2023/07/06 08:18:07;;;;;;;25.90;3.83;;;;;;;18.41;71.02;96498.72;5049951;28;20075;-76
2023/07/06 08:20:35;;;;;;;4.32;2.35;;;;;;;18.58;71.54;96502.16;5058563;28;20397;-76
2023/07/06 08:23:03;;;;;;;9.18;2.50;;;;;;;18.63;66.37;96504.63;5049796;28;20049;-77
2023/07/06 08:25:37;;;;;;;4.53;2.55;;;;;;;18.87;65.88;96498.78;5050362;28;20052;-76
2023/07/06 08:28:05;;;;;;;23.80;3.53;;;;;;;18.93;55.62;96502.81;5050204;28;20061;-75
2023/07/06 08:30:32;;;;;;;39.45;4.00;;;;;;;19.16;60.25;96493.72;5050423;28;20041;-76
2023/07/06 08:33:01;;;;;;;23.88;3.30;;;;;;;19.27;60.41;96494.69;5066174;28;20045;-76
2023/07/06 08:35:29;;;;;;;24.67;3.03;;;;;;;19.41;59.52;96492.13;5050023;28;20049;-75
2023/07/06 08:37:57;;;;;;;25.08;3.40;;;;;;;19.66;60.94;96492.53;5049851;28;20068;-75
2023/07/06 08:40:28;;;;;;;26.35;3.60;;;;;;;19.76;60.00;96478.06;5050345;28;20049;-76
2023/07/06 08:42:56;;;;;;;4.13;2.05;;;;;;;19.91;56.00;96490.09;5050172;28;20044;-76
2023/07/06 08:45:38;;;;;;;3.80;2.08;;;;;;;19.82;49.97;96492.34;5060036;28;20064;-75
2023/07/06 08:48:06;;;;;;;6.57;2.20;;;;;;;19.73;51.85;96494.59;5049464;28;20132;-76
2023/07/06 08:50:36;;;;;;;3.67;1.75;;;;;;;19.98;56.36;96487.41;5049977;28;20068;-75
2023/07/06 08:53:10;;;;;;;8.38;2.78;;;;;;;20.13;50.49;96493.13;5048926;28;20051;-77
2023/07/06 08:55:37;;;;;;;26.40;3.25;;;;;;;20.41;53.28;96490.72;5049966;28;20463;-75
2023/07/06 08:58:04;;;;;;;8.85;2.55;;;;;;;20.59;57.79;96491.72;5049144;28;20129;-75
2023/07/06 09:00:31;;;;;;;5.32;2.20;;;;;;;20.65;53.77;96488.59;5049981;28;20049;-75
2023/07/06 09:03:07;;;;;;;6.18;2.40;;;;;;;20.73;52.73;96485.53;5049544;28;20048;-76
2023/07/06 09:05:37;;;;;;;5.57;2.13;;;;;;;20.85;51.49;96487.22;5049771;28;20051;-75
2023/07/06 09:08:05;;;;;;;5.30;2.08;;;;;;;21.02;51.44;96486.56;5029544;28;20077;-75
2023/07/06 09:10:32;;;;;;;4.13;2.17;;;;;;;21.02;50.05;96491.31;5029951;28;20049;-75
2023/07/06 09:13:14;;;;;;;7.45;2.67;;;;;;;21.16;50.01;96479.56;5049354;28;20049;-76
2023/07/06 09:15:44;;;;;;;10.35;2.70;;;;;;;21.29;48.64;96486.38;5079302;28;20047;-76
2023/07/06 09:18:15;;;;;;;5.05;2.80;;;;;;;21.41;49.69;96485.31;5069260;28;20076;-75
2023/07/06 09:20:44;;;;;;;7.95;2.80;;;;;;;21.49;48.35;96482.19;5069743;28;20408;-76
2023/07/06 09:23:15;;;;;;;5.88;2.83;;;;;;;21.68;50.42;96480.34;5068988;28;20519;-76
2023/07/06 09:25:43;;;;;;;22.83;3.95;;;;;;;21.84;48.80;96475.28;5069868;28;20044;-75
2023/07/06 09:28:16;;;;;;;33.80;4.43;;;;;;;21.85;48.03;96469.34;5060070;28;20052;-75
2023/07/06 09:30:43;;;;;;;12.98;3.58;;;;;;;21.69;47.42;96484.69;5063854;28;20045;-76
2023/07/06 09:33:19;;;;;;;23.70;3.83;;;;;;;21.78;48.48;96485.16;5056589;28;20041;-76
2023/07/06 09:35:46;;;;;;;13.35;3.78;;;;;;;21.93;46.22;96486.03;5048874;28;20052;-75
2023/07/06 09:38:15;;;;;;;17.75;4.22;;;;;;;22.04;46.63;96482.13;5066953;28;20504;-75
2023/07/06 09:40:43;;;;;;;5.65;2.60;;;;;;;21.98;46.05;96475.34;5069726;28;20045;-76
2023/07/06 09:43:20;;;;;;;5.60;2.88;;;;;;;21.85;42.75;96476.88;5060654;28;20044;-75
2023/07/06 09:45:49;;;;;;;3.85;2.60;;;;;;;22.09;48.08;96476.19;5071307;28;20059;-75
2023/07/06 09:48:27;;;;;;;15.57;2.80;;;;;;;22.14;43.98;96473.06;5068849;28;20052;-76
2023/07/06 09:51:06;;;;;;;5.53;2.60;;;;;;;22.39;47.10;96477.88;5069512;28;20048;-76
2023/07/06 09:53:38;;;;;;;4.55;2.78;;;;;;;22.42;45.64;96477.13;5069366;28;20052;-75
2023/07/06 09:56:10;;;;;;;6.70;2.87;;;;;;;22.55;49.68;96472.81;5069262;28;20048;-76
2023/07/06 09:58:37;;;;;;;3.35;2.35;;;;;;;22.49;43.22;96466.03;5069140;28;20048;-75
2023/07/06 10:01:10;;;;;;;4.82;2.90;;;;;;;22.35;44.59;96466.00;5068995;28;20428;-76
2023/07/06 10:03:46;;;;;;;6.40;2.90;;;;;;;22.45;47.62;96473.56;5068905;28;20053;-74
2023/07/06 10:06:28;;;;;;;5.68;3.17;;;;;;;22.53;48.00;96472.38;5068522;28;20044;-75
2023/07/06 10:09:03;;;;;;;6.13;2.20;;;;;;;22.81;47.15;96465.28;5069694;28;20055;-75
2023/07/06 10:11:38;;;;;;;4.47;2.88;;;;;;;22.81;44.82;96468.88;5068978;28;20380;-75
2023/07/06 10:14:14;;;;;;;5.07;2.33;;;;;;;22.89;44.90;96467.72;5070369;28;20056;-76
2023/07/06 10:16:49;;;;;;;5.18;2.78;;;;;;;22.94;46.99;96463.75;5072697;28;20076;-75
2023/07/06 10:19:25;;;;;;;4.72;3.00;;;;;;;22.97;44.07;96467.69;5072356;28;20056;-75
2023/07/06 10:22:09;;;;;;;5.45;2.80;;;;;;;23.08;43.84;96462.97;5072710;28;20052;-75
2023/07/06 10:24:45;;;;;;;4.47;2.85;;;;;;;22.94;42.56;96468.50;5072763;28;20055;-75
2023/07/06 10:27:18;;;;;;;4.80;2.67;;;;;;;22.99;45.20;96460.59;5072287;28;20048;-75
2023/07/06 10:29:50;;;;;;;5.20;2.58;;;;;;;23.11;47.68;96462.16;5072609;28;20044;-75
2023/07/06 10:32:24;;;;;;;5.10;2.90;;;;;;;22.89;45.60;96466.91;5071907;28;20036;-74
2023/07/06 10:34:56;;;;;;;3.97;2.67;;;;;;;22.85;46.07;96466.09;5072459;28;20110;-75
2023/07/06 10:37:25;;;;;;;5.47;2.58;;;;;;;22.95;46.98;96470.88;5071991;28;20045;-75
2023/07/06 10:40:19;;;;;;;3.83;2.35;;;;;;;23.09;44.03;96470.91;5075740;28;20036;-75
2023/07/06 10:42:51;;;;;;;6.03;2.92;;;;;;;23.00;43.24;96470.50;5078585;28;20044;-75
2023/07/06 10:45:23;;;;;;;5.55;3.00;;;;;;;23.15;44.67;96472.09;5078271;28;20052;-74
2023/07/06 10:47:51;;;;;;;8.25;2.88;;;;;;;23.03;44.53;96472.50;5080304;28;20094;-75
2023/07/06 10:50:26;;;;;;;4.95;2.72;;;;;;;22.54;44.59;96468.41;5079049;28;20044;-75
2023/07/06 10:52:59;;;;;;;4.30;2.50;;;;;;;22.60;46.21;96460.50;5076236;28;20051;-75
2023/07/06 10:55:29;;;;;;;5.93;2.58;;;;;;;22.38;48.40;96456.88;5077892;28;20055;-75
2023/07/06 10:58:06;;;;;;;4.97;2.90;;;;;;;21.87;44.96;96457.84;5077381;28;20079;-75
2023/07/06 11:00:35;;;;;;;4.70;2.80;;;;;;;22.03;49.10;96461.13;5077117;28;20135;-75
2023/07/06 11:03:04;;;;;;;5.45;2.83;;;;;;;22.02;48.97;96464.25;5077372;28;20055;-77
2023/07/06 11:05:33;;;;;;;3.78;2.47;;;;;;;21.98;47.81;96461.50;5077739;28;20041;-75
2023/07/06 11:08:01;;;;;;;3.85;2.70;;;;;;;21.92;48.72;96465.78;5077183;28;20139;-75
2023/07/06 11:10:44;;;;;;;5.70;3.10;;;;;;;21.47;46.08;96459.63;5076443;28;20407;-75
2023/07/06 11:13:21;;;;;;;9.27;3.28;;;;;;;21.46;46.79;96463.59;5052804;28;20048;-74
2023/07/06 11:15:59;;;;;;;5.65;2.90;;;;;;;21.39;45.07;96459.97;5071580;28;20747;-75
2023/07/06 11:18:34;;;;;;;5.53;2.47;;;;;;;21.47;48.83;96461.63;5071243;28;20135;-75
2023/07/06 11:21:07;;;;;;;4.53;2.75;;;;;;;21.37;45.01;96452.06;5071752;28;20040;-74
2023/07/06 11:23:39;;;;;;;6.97;2.95;;;;;;;21.62;45.82;96461.31;5071826;28;20048;-75
2023/07/06 11:26:13;;;;;;;5.65;3.03;;;;;;;21.69;46.58;96465.31;5069686;28;20048;-74
2023/07/06 11:28:41;;;;;;;4.10;2.70;;;;;;;21.75;45.08;96460.97;5071616;28;20056;-74
2023/07/06 11:31:21;;;;;;;4.70;3.03;;;;;;;21.97;46.96;96453.53;5069849;28;20048;-76
2023/07/06 11:33:56;;;;;;;6.15;3.13;;;;;;;21.88;45.64;96451.16;5071498;28;20463;-75
2023/07/06 11:36:37;;;;;;;6.40;2.80;;;;;;;21.89;45.02;96452.72;5069979;28;20113;-75
2023/07/06 11:39:13;;;;;;;4.53;2.72;;;;;;;22.02;45.35;96448.41;5070822;28;20040;-75